sensor_id;sensor_type;location;lat;lon;timestamp;P1;durP1;ratioP1;P2;durP2;ratioP2
11008;SDS011;5557;51.670;7.788;2023-06-04T00:02:23;6.70;;;1.63;;
11008;SDS011;5557;51.670;7.788;2023-06-04T00:04:51;3.00;;;2.37;;
11008;SDS011;5557;51.670;7.788;2023-06-04T00:07:18;10.03;;;1.80;;
11008;SDS011;5557;51.670;7.788;2023-06-04T00:09:45;2.30;;;2.10;;
11008;SDS011;5557;51.670;7.788;2023-06-04T00:12:13;2.23;;;2.10;;
11008;SDS011;5557;51.670;7.788;2023-06-04T00:14:44;9.07;;;2.00;;
11008;SDS011;5557;51.670;7.788;2023-06-04T00:17:11;6.57;;;1.87;;
11008;SDS011;5557;51.670;7.788;2023-06-04T00:19:38;1.80;;;1.67;;
11008;SDS011;5557;51.670;7.788;2023-06-04T00:22:07;2.20;;;2.10;;
11008;SDS011;5557;51.670;7.788;2023-06-04T00:24:34;1.97;;;1.87;;
11008;SDS011;5557;51.670;7.788;2023-06-04T00:27:03;2.20;;;2.10;;
11008;SDS011;5557;51.670;7.788;2023-06-04T00:29:31;1.83;;;1.73;;
11008;SDS011;5557;51.670;7.788;2023-06-04T00:31:58;3.60;;;2.37;;
11008;SDS011;5557;51.670;7.788;2023-06-04T00:34:25;5.90;;;2.10;;
11008;SDS011;5557;51.670;7.788;2023-06-04T00:36:53;2.30;;;2.20;;
11008;SDS011;5557;51.670;7.788;2023-06-04T00:39:20;2.10;;;1.83;;
11008;SDS011;5557;51.670;7.788;2023-06-04T00:41:47;2.87;;;2.10;;
11008;SDS011;5557;51.670;7.788;2023-06-04T00:44:13;3.47;;;2.10;;
11008;SDS011;5557;51.670;7.788;2023-06-04T00:46:40;3.30;;;2.47;;
11008;SDS011;5557;51.670;7.788;2023-06-04T00:49:11;2.03;;;1.93;;
11008;SDS011;5557;51.670;7.788;2023-06-04T00:51:40;2.70;;;2.47;;
11008;SDS011;5557;51.670;7.788;2023-06-04T00:54:07;2.73;;;2.53;;
11008;SDS011;5557;51.670;7.788;2023-06-04T00:56:38;2.30;;;2.17;;
11008;SDS011;5557;51.670;7.788;2023-06-04T00:59:06;5.07;;;2.47;;
11008;SDS011;5557;51.670;7.788;2023-06-04T01:04:09;4.43;;;2.37;;
11008;SDS011;5557;51.670;7.788;2023-06-04T01:06:43;2.53;;;2.30;;
11008;SDS011;5557;51.670;7.788;2023-06-04T01:09:11;4.20;;;2.50;;
11008;SDS011;5557;51.670;7.788;2023-06-04T01:11:40;2.20;;;2.10;;
11008;SDS011;5557;51.670;7.788;2023-06-04T01:14:07;1.90;;;1.80;;
11008;SDS011;5557;51.670;7.788;2023-06-04T01:16:38;3.53;;;1.93;;
11008;SDS011;5557;51.670;7.788;2023-06-04T01:19:11;2.63;;;2.30;;
11008;SDS011;5557;51.670;7.788;2023-06-04T01:21:57;5.33;;;2.70;;
11008;SDS011;5557;51.670;7.788;2023-06-04T01:24:29;10.03;;;2.30;;
11008;SDS011;5557;51.670;7.788;2023-06-04T01:27:03;3.23;;;2.60;;
11008;SDS011;5557;51.670;7.788;2023-06-04T01:29:32;2.30;;;2.20;;
11008;SDS011;5557;51.670;7.788;2023-06-04T01:32:02;5.00;;;2.83;;
11008;SDS011;5557;51.670;7.788;2023-06-04T01:34:30;3.47;;;2.60;;
11008;SDS011;5557;51.670;7.788;2023-06-04T01:37:10;2.27;;;2.07;;
11008;SDS011;5557;51.670;7.788;2023-06-04T01:39:37;3.43;;;2.40;;
11008;SDS011;5557;51.670;7.788;2023-06-04T01:42:04;2.20;;;2.10;;
11008;SDS011;5557;51.670;7.788;2023-06-04T01:44:32;3.80;;;2.23;;
11008;SDS011;5557;51.670;7.788;2023-06-04T01:46:59;2.00;;;1.90;;
11008;SDS011;5557;51.670;7.788;2023-06-04T01:49:26;4.17;;;2.80;;
11008;SDS011;5557;51.670;7.788;2023-06-04T01:51:54;2.40;;;2.30;;
11008;SDS011;5557;51.670;7.788;2023-06-04T01:54:22;2.23;;;2.13;;
11008;SDS011;5557;51.670;7.788;2023-06-04T01:56:49;8.33;;;2.00;;
11008;SDS011;5557;51.670;7.788;2023-06-04T01:59:16;2.17;;;2.07;;
11008;SDS011;5557;51.670;7.788;2023-06-04T02:01:43;5.33;;;2.00;;
11008;SDS011;5557;51.670;7.788;2023-06-04T02:04:10;3.47;;;2.77;;
11008;SDS011;5557;51.670;7.788;2023-06-04T02:06:37;3.10;;;2.10;;
11008;SDS011;5557;51.670;7.788;2023-06-04T02:09:04;2.50;;;2.40;;
11008;SDS011;5557;51.670;7.788;2023-06-04T02:11:32;3.30;;;2.73;;
11008;SDS011;5557;51.670;7.788;2023-06-04T02:13:59;5.13;;;2.13;;
11008;SDS011;5557;51.670;7.788;2023-06-04T02:16:26;2.23;;;2.13;;
11008;SDS011;5557;51.670;7.788;2023-06-04T02:18:53;3.27;;;1.90;;
11008;SDS011;5557;51.670;7.788;2023-06-04T02:21:20;2.73;;;2.50;;
11008;SDS011;5557;51.670;7.788;2023-06-04T02:23:49;6.40;;;2.13;;
11008;SDS011;5557;51.670;7.788;2023-06-04T02:26:16;2.70;;;2.50;;
11008;SDS011;5557;51.670;7.788;2023-06-04T02:28:45;7.77;;;2.33;;
11008;SDS011;5557;51.670;7.788;2023-06-04T02:31:14;5.93;;;2.30;;
11008;SDS011;5557;51.670;7.788;2023-06-04T02:33:45;2.83;;;1.97;;
11008;SDS011;5557;51.670;7.788;2023-06-04T02:36:12;2.23;;;2.03;;
11008;SDS011;5557;51.670;7.788;2023-06-04T02:38:39;2.80;;;2.33;;
11008;SDS011;5557;51.670;7.788;2023-06-04T02:41:06;2.63;;;2.43;;
11008;SDS011;5557;51.670;7.788;2023-06-04T02:43:34;2.67;;;2.40;;
11008;SDS011;5557;51.670;7.788;2023-06-04T02:46:01;2.60;;;2.40;;
11008;SDS011;5557;51.670;7.788;2023-06-04T02:48:28;2.80;;;2.70;;
11008;SDS011;5557;51.670;7.788;2023-06-04T02:50:55;4.63;;;2.47;;
11008;SDS011;5557;51.670;7.788;2023-06-04T02:53:23;4.30;;;2.30;;
11008;SDS011;5557;51.670;7.788;2023-06-04T02:55:50;2.57;;;2.47;;
11008;SDS011;5557;51.670;7.788;2023-06-04T02:58:19;2.83;;;2.73;;
11008;SDS011;5557;51.670;7.788;2023-06-04T03:00:48;4.03;;;2.77;;
11008;SDS011;5557;51.670;7.788;2023-06-04T03:03:14;3.33;;;3.10;;
11008;SDS011;5557;51.670;7.788;2023-06-04T03:05:42;5.20;;;3.00;;
11008;SDS011;5557;51.670;7.788;2023-06-04T03:08:09;3.50;;;2.97;;
11008;SDS011;5557;51.670;7.788;2023-06-04T03:10:36;3.33;;;2.60;;
11008;SDS011;5557;51.670;7.788;2023-06-04T03:13:03;2.53;;;2.07;;
11008;SDS011;5557;51.670;7.788;2023-06-04T03:15:30;2.90;;;2.57;;
11008;SDS011;5557;51.670;7.788;2023-06-04T03:17:57;3.53;;;2.73;;
11008;SDS011;5557;51.670;7.788;2023-06-04T03:20:26;11.93;;;3.00;;
11008;SDS011;5557;51.670;7.788;2023-06-04T03:22:52;3.10;;;2.90;;
11008;SDS011;5557;51.670;7.788;2023-06-04T03:25:19;2.67;;;2.47;;
11008;SDS011;5557;51.670;7.788;2023-06-04T03:27:46;2.97;;;2.63;;
11008;SDS011;5557;51.670;7.788;2023-06-04T03:30:14;5.60;;;3.20;;
11008;SDS011;5557;51.670;7.788;2023-06-04T03:32:41;4.43;;;3.23;;
11008;SDS011;5557;51.670;7.788;2023-06-04T03:35:10;2.80;;;2.60;;
11008;SDS011;5557;51.670;7.788;2023-06-04T03:37:37;18.43;;;3.80;;
11008;SDS011;5557;51.670;7.788;2023-06-04T03:40:04;3.73;;;3.50;;
11008;SDS011;5557;51.670;7.788;2023-06-04T03:42:35;3.80;;;3.40;;
11008;SDS011;5557;51.670;7.788;2023-06-04T03:45:02;4.40;;;3.20;;
11008;SDS011;5557;51.670;7.788;2023-06-04T03:47:29;3.20;;;2.90;;
11008;SDS011;5557;51.670;7.788;2023-06-04T03:49:56;2.70;;;2.50;;
11008;SDS011;5557;51.670;7.788;2023-06-04T03:52:23;4.47;;;2.97;;
11008;SDS011;5557;51.670;7.788;2023-06-04T03:54:50;3.13;;;2.40;;
11008;SDS011;5557;51.670;7.788;2023-06-04T03:57:17;3.50;;;2.53;;
11008;SDS011;5557;51.670;7.788;2023-06-04T03:59:44;2.80;;;2.60;;
11008;SDS011;5557;51.670;7.788;2023-06-04T04:02:11;2.77;;;2.57;;
11008;SDS011;5557;51.670;7.788;2023-06-04T04:04:38;3.00;;;2.80;;
11008;SDS011;5557;51.670;7.788;2023-06-04T04:07:07;2.60;;;2.37;;
11008;SDS011;5557;51.670;7.788;2023-06-04T04:09:39;2.63;;;2.53;;
11008;SDS011;5557;51.670;7.788;2023-06-04T04:12:06;7.00;;;2.30;;
11008;SDS011;5557;51.670;7.788;2023-06-04T04:14:33;2.00;;;1.90;;
11008;SDS011;5557;51.670;7.788;2023-06-04T04:17:00;6.20;;;2.60;;
11008;SDS011;5557;51.670;7.788;2023-06-04T04:19:30;2.17;;;2.07;;
11008;SDS011;5557;51.670;7.788;2023-06-04T04:21:57;6.03;;;2.53;;
11008;SDS011;5557;51.670;7.788;2023-06-04T04:24:24;1.90;;;1.80;;
11008;SDS011;5557;51.670;7.788;2023-06-04T04:26:53;2.17;;;2.07;;
11008;SDS011;5557;51.670;7.788;2023-06-04T04:29:21;2.00;;;1.90;;
11008;SDS011;5557;51.670;7.788;2023-06-04T04:31:49;2.73;;;2.43;;
11008;SDS011;5557;51.670;7.788;2023-06-04T04:34:19;2.40;;;2.20;;
11008;SDS011;5557;51.670;7.788;2023-06-04T04:36:47;2.30;;;2.10;;
11008;SDS011;5557;51.670;7.788;2023-06-04T04:39:27;2.77;;;2.57;;
11008;SDS011;5557;51.670;7.788;2023-06-04T04:41:55;10.03;;;2.27;;
11008;SDS011;5557;51.670;7.788;2023-06-04T04:44:22;2.00;;;1.80;;
11008;SDS011;5557;51.670;7.788;2023-06-04T04:46:49;4.63;;;1.93;;
11008;SDS011;5557;51.670;7.788;2023-06-04T04:49:16;5.53;;;2.07;;
11008;SDS011;5557;51.670;7.788;2023-06-04T04:51:43;3.00;;;2.13;;
11008;SDS011;5557;51.670;7.788;2023-06-04T04:54:10;2.10;;;1.90;;
11008;SDS011;5557;51.670;7.788;2023-06-04T04:56:37;2.90;;;2.00;;
11008;SDS011;5557;51.670;7.788;2023-06-04T04:59:03;3.63;;;1.97;;
11008;SDS011;5557;51.670;7.788;2023-06-04T05:01:30;1.63;;;1.50;;
11008;SDS011;5557;51.670;7.788;2023-06-04T05:03:58;1.90;;;1.67;;
11008;SDS011;5557;51.670;7.788;2023-06-04T05:06:28;8.20;;;1.73;;
11008;SDS011;5557;51.670;7.788;2023-06-04T05:08:55;5.43;;;1.93;;
11008;SDS011;5557;51.670;7.788;2023-06-04T05:11:22;1.77;;;1.67;;
11008;SDS011;5557;51.670;7.788;2023-06-04T05:13:49;2.33;;;2.13;;
11008;SDS011;5557;51.670;7.788;2023-06-04T05:16:16;6.07;;;1.77;;
11008;SDS011;5557;51.670;7.788;2023-06-04T05:18:47;1.70;;;1.60;;
11008;SDS011;5557;51.670;7.788;2023-06-04T05:21:14;1.90;;;1.80;;
11008;SDS011;5557;51.670;7.788;2023-06-04T05:23:41;1.83;;;1.73;;
11008;SDS011;5557;51.670;7.788;2023-06-04T05:26:08;2.70;;;2.00;;
11008;SDS011;5557;51.670;7.788;2023-06-04T05:28:35;1.57;;;1.47;;
11008;SDS011;5557;51.670;7.788;2023-06-04T05:31:02;2.80;;;1.50;;
11008;SDS011;5557;51.670;7.788;2023-06-04T05:33:31;2.70;;;2.50;;
11008;SDS011;5557;51.670;7.788;2023-06-04T05:35:58;2.07;;;1.50;;
11008;SDS011;5557;51.670;7.788;2023-06-04T05:38:25;2.03;;;1.53;;
11008;SDS011;5557;51.670;7.788;2023-06-04T05:40:55;2.17;;;1.60;;
11008;SDS011;5557;51.670;7.788;2023-06-04T05:43:23;1.97;;;1.83;;
11008;SDS011;5557;51.670;7.788;2023-06-04T05:45:50;4.13;;;1.63;;
11008;SDS011;5557;51.670;7.788;2023-06-04T05:48:18;3.37;;;2.00;;
11008;SDS011;5557;51.670;7.788;2023-06-04T05:50:45;1.50;;;1.40;;
11008;SDS011;5557;51.670;7.788;2023-06-04T05:53:13;2.47;;;1.90;;
11008;SDS011;5557;51.670;7.788;2023-06-04T05:55:40;1.90;;;1.80;;
11008;SDS011;5557;51.670;7.788;2023-06-04T05:58:08;2.07;;;1.70;;
11008;SDS011;5557;51.670;7.788;2023-06-04T06:00:34;1.30;;;1.20;;
11008;SDS011;5557;51.670;7.788;2023-06-04T06:03:01;8.50;;;1.73;;
11008;SDS011;5557;51.670;7.788;2023-06-04T06:05:29;2.03;;;1.93;;
11008;SDS011;5557;51.670;7.788;2023-06-04T06:07:56;2.80;;;2.00;;
11008;SDS011;5557;51.670;7.788;2023-06-04T06:10:23;1.60;;;1.50;;
11008;SDS011;5557;51.670;7.788;2023-06-04T06:12:50;1.60;;;1.50;;
11008;SDS011;5557;51.670;7.788;2023-06-04T06:15:18;2.20;;;1.73;;
11008;SDS011;5557;51.670;7.788;2023-06-04T06:17:45;5.00;;;1.83;;
11008;SDS011;5557;51.670;7.788;2023-06-04T06:20:12;1.93;;;1.60;;
11008;SDS011;5557;51.670;7.788;2023-06-04T06:22:44;1.73;;;1.63;;
11008;SDS011;5557;51.670;7.788;2023-06-04T06:25:11;1.60;;;1.50;;
11008;SDS011;5557;51.670;7.788;2023-06-04T06:27:42;10.10;;;1.70;;
11008;SDS011;5557;51.670;7.788;2023-06-04T06:30:09;3.50;;;1.40;;
11008;SDS011;5557;51.670;7.788;2023-06-04T06:32:37;3.57;;;1.60;;
11008;SDS011;5557;51.670;7.788;2023-06-04T06:35:04;5.10;;;1.50;;
11008;SDS011;5557;51.670;7.788;2023-06-04T06:37:32;2.17;;;1.97;;
11008;SDS011;5557;51.670;7.788;2023-06-04T06:39:59;2.93;;;1.73;;
11008;SDS011;5557;51.670;7.788;2023-06-04T06:42:26;1.80;;;1.40;;
11008;SDS011;5557;51.670;7.788;2023-06-04T06:45:00;3.00;;;2.17;;
11008;SDS011;5557;51.670;7.788;2023-06-04T06:47:27;1.70;;;1.60;;
11008;SDS011;5557;51.670;7.788;2023-06-04T06:49:54;5.43;;;1.50;;
11008;SDS011;5557;51.670;7.788;2023-06-04T06:52:21;2.30;;;1.40;;
11008;SDS011;5557;51.670;7.788;2023-06-04T06:54:48;3.43;;;1.10;;
11008;SDS011;5557;51.670;7.788;2023-06-04T06:57:15;1.93;;;1.37;;
11008;SDS011;5557;51.670;7.788;2023-06-04T06:59:43;2.07;;;1.20;;
11008;SDS011;5557;51.670;7.788;2023-06-04T07:02:11;1.60;;;1.50;;
11008;SDS011;5557;51.670;7.788;2023-06-04T07:04:38;2.40;;;1.20;;
11008;SDS011;5557;51.670;7.788;2023-06-04T07:07:05;2.40;;;1.80;;
11008;SDS011;5557;51.670;7.788;2023-06-04T07:09:33;2.43;;;1.20;;
11008;SDS011;5557;51.670;7.788;2023-06-04T07:12:01;2.53;;;1.20;;
11008;SDS011;5557;51.670;7.788;2023-06-04T07:14:27;2.93;;;1.23;;
11008;SDS011;5557;51.670;7.788;2023-06-04T07:16:54;6.07;;;1.60;;
11008;SDS011;5557;51.670;7.788;2023-06-04T07:19:21;4.37;;;1.40;;
11008;SDS011;5557;51.670;7.788;2023-06-04T07:21:49;3.10;;;1.63;;
11008;SDS011;5557;51.670;7.788;2023-06-04T07:24:16;5.03;;;1.57;;
11008;SDS011;5557;51.670;7.788;2023-06-04T07:26:43;1.50;;;1.40;;
11008;SDS011;5557;51.670;7.788;2023-06-04T07:29:11;1.20;;;1.10;;
11008;SDS011;5557;51.670;7.788;2023-06-04T07:31:38;2.13;;;1.10;;
11008;SDS011;5557;51.670;7.788;2023-06-04T07:34:05;2.03;;;1.13;;
11008;SDS011;5557;51.670;7.788;2023-06-04T07:36:32;2.90;;;1.77;;
11008;SDS011;5557;51.670;7.788;2023-06-04T07:38:59;1.50;;;1.23;;
11008;SDS011;5557;51.670;7.788;2023-06-04T07:41:26;2.13;;;1.73;;
11008;SDS011;5557;51.670;7.788;2023-06-04T07:43:53;2.73;;;1.50;;
11008;SDS011;5557;51.670;7.788;2023-06-04T07:46:20;3.53;;;1.50;;
11008;SDS011;5557;51.670;7.788;2023-06-04T07:48:47;1.80;;;1.70;;
11008;SDS011;5557;51.670;7.788;2023-06-04T07:51:14;1.37;;;1.27;;
11008;SDS011;5557;51.670;7.788;2023-06-04T07:53:43;3.63;;;1.57;;
11008;SDS011;5557;51.670;7.788;2023-06-04T07:56:11;5.87;;;1.30;;
11008;SDS011;5557;51.670;7.788;2023-06-04T07:58:38;5.00;;;2.30;;
11008;SDS011;5557;51.670;7.788;2023-06-04T08:01:05;1.40;;;1.30;;
11008;SDS011;5557;51.670;7.788;2023-06-04T08:03:33;4.70;;;1.40;;
11008;SDS011;5557;51.670;7.788;2023-06-04T08:06:00;3.30;;;1.23;;
11008;SDS011;5557;51.670;7.788;2023-06-04T08:08:30;6.33;;;2.27;;
11008;SDS011;5557;51.670;7.788;2023-06-04T08:10:57;3.83;;;1.67;;
11008;SDS011;5557;51.670;7.788;2023-06-04T08:13:24;1.50;;;1.40;;
11008;SDS011;5557;51.670;7.788;2023-06-04T08:15:52;1.70;;;1.60;;
11008;SDS011;5557;51.670;7.788;2023-06-04T08:18:19;2.20;;;1.47;;
11008;SDS011;5557;51.670;7.788;2023-06-04T08:20:46;5.37;;;2.10;;
11008;SDS011;5557;51.670;7.788;2023-06-04T08:23:13;1.83;;;1.73;;
11008;SDS011;5557;51.670;7.788;2023-06-04T08:25:40;12.93;;;1.77;;
11008;SDS011;5557;51.670;7.788;2023-06-04T08:28:07;3.40;;;1.67;;
11008;SDS011;5557;51.670;7.788;2023-06-04T08:30:35;2.07;;;1.87;;
11008;SDS011;5557;51.670;7.788;2023-06-04T08:33:02;3.50;;;1.80;;
11008;SDS011;5557;51.670;7.788;2023-06-04T08:35:30;1.80;;;1.70;;
11008;SDS011;5557;51.670;7.788;2023-06-04T08:37:57;2.60;;;2.07;;
11008;SDS011;5557;51.670;7.788;2023-06-04T08:40:25;4.80;;;1.77;;
11008;SDS011;5557;51.670;7.788;2023-06-04T08:42:52;2.13;;;2.03;;
11008;SDS011;5557;51.670;7.788;2023-06-04T08:45:24;1.90;;;1.80;;
11008;SDS011;5557;51.670;7.788;2023-06-04T08:47:54;1.67;;;1.57;;
11008;SDS011;5557;51.670;7.788;2023-06-04T08:50:23;3.40;;;1.87;;
11008;SDS011;5557;51.670;7.788;2023-06-04T08:52:54;2.00;;;1.90;;
11008;SDS011;5557;51.670;7.788;2023-06-04T08:55:22;2.43;;;2.23;;
11008;SDS011;5557;51.670;7.788;2023-06-04T08:57:50;2.57;;;2.37;;
11008;SDS011;5557;51.670;7.788;2023-06-04T09:00:18;4.13;;;2.53;;
11008;SDS011;5557;51.670;7.788;2023-06-04T09:02:45;2.80;;;2.60;;
11008;SDS011;5557;51.670;7.788;2023-06-04T09:05:19;3.40;;;2.40;;
11008;SDS011;5557;51.670;7.788;2023-06-04T09:07:52;3.77;;;2.37;;
11008;SDS011;5557;51.670;7.788;2023-06-04T09:10:20;2.57;;;2.37;;
11008;SDS011;5557;51.670;7.788;2023-06-04T09:12:49;3.17;;;2.87;;
11008;SDS011;5557;51.670;7.788;2023-06-04T09:15:18;3.97;;;3.30;;
11008;SDS011;5557;51.670;7.788;2023-06-04T09:17:45;7.03;;;2.47;;
11008;SDS011;5557;51.670;7.788;2023-06-04T09:20:19;2.70;;;2.50;;
11008;SDS011;5557;51.670;7.788;2023-06-04T09:22:49;4.23;;;3.00;;
11008;SDS011;5557;51.670;7.788;2023-06-04T09:25:23;2.80;;;2.60;;
11008;SDS011;5557;51.670;7.788;2023-06-04T09:27:52;5.27;;;2.70;;
11008;SDS011;5557;51.670;7.788;2023-06-04T09:30:22;3.63;;;3.20;;
11008;SDS011;5557;51.670;7.788;2023-06-04T09:32:50;2.90;;;2.70;;
11008;SDS011;5557;51.670;7.788;2023-06-04T09:35:20;4.80;;;2.80;;
11008;SDS011;5557;51.670;7.788;2023-06-04T09:37:56;4.93;;;3.50;;
11008;SDS011;5557;51.670;7.788;2023-06-04T09:40:23;3.33;;;2.70;;
11008;SDS011;5557;51.670;7.788;2023-06-04T09:42:51;3.43;;;3.23;;
11008;SDS011;5557;51.670;7.788;2023-06-04T09:45:28;2.57;;;2.47;;
11008;SDS011;5557;51.670;7.788;2023-06-04T09:47:57;2.50;;;2.40;;
11008;SDS011;5557;51.670;7.788;2023-06-04T09:50:26;3.27;;;3.10;;
11008;SDS011;5557;51.670;7.788;2023-06-04T09:52:54;2.40;;;2.30;;
11008;SDS011;5557;51.670;7.788;2023-06-04T09:55:21;2.73;;;2.37;;
11008;SDS011;5557;51.670;7.788;2023-06-04T09:57:49;4.67;;;2.10;;
11008;SDS011;5557;51.670;7.788;2023-06-04T10:00:17;2.10;;;1.90;;
11008;SDS011;5557;51.670;7.788;2023-06-04T10:02:51;2.33;;;1.80;;
11008;SDS011;5557;51.670;7.788;2023-06-04T10:05:29;9.00;;;1.77;;
11008;SDS011;5557;51.670;7.788;2023-06-04T10:07:58;3.47;;;1.93;;
11008;SDS011;5557;51.670;7.788;2023-06-04T10:10:29;4.80;;;1.70;;
11008;SDS011;5557;51.670;7.788;2023-06-04T10:13:00;4.10;;;1.83;;
11008;SDS011;5557;51.670;7.788;2023-06-04T10:15:33;4.60;;;1.67;;
11008;SDS011;5557;51.670;7.788;2023-06-04T10:18:02;2.43;;;1.50;;
11008;SDS011;5557;51.670;7.788;2023-06-04T10:20:30;3.33;;;1.50;;
11008;SDS011;5557;51.670;7.788;2023-06-04T10:22:58;3.70;;;2.20;;
11008;SDS011;5557;51.670;7.788;2023-06-04T10:25:26;1.97;;;1.70;;
11008;SDS011;5557;51.670;7.788;2023-06-04T10:27:54;1.90;;;1.80;;
11008;SDS011;5557;51.670;7.788;2023-06-04T10:30:22;1.63;;;1.20;;
11008;SDS011;5557;51.670;7.788;2023-06-04T10:32:50;2.20;;;1.33;;
11008;SDS011;5557;51.670;7.788;2023-06-04T10:35:17;1.77;;;1.30;;
11008;SDS011;5557;51.670;7.788;2023-06-04T10:38:03;2.47;;;1.40;;
11008;SDS011;5557;51.670;7.788;2023-06-04T10:40:35;1.70;;;1.60;;
11008;SDS011;5557;51.670;7.788;2023-06-04T10:43:04;5.03;;;2.03;;
11008;SDS011;5557;51.670;7.788;2023-06-04T10:45:42;1.40;;;1.30;;
11008;SDS011;5557;51.670;7.788;2023-06-04T10:48:10;1.60;;;1.50;;
11008;SDS011;5557;51.670;7.788;2023-06-04T10:50:48;2.50;;;1.40;;
11008;SDS011;5557;51.670;7.788;2023-06-04T10:53:19;3.10;;;1.57;;
11008;SDS011;5557;51.670;7.788;2023-06-04T10:55:47;2.27;;;1.50;;
11008;SDS011;5557;51.670;7.788;2023-06-04T10:58:16;1.80;;;1.53;;
11008;SDS011;5557;51.670;7.788;2023-06-04T11:00:45;6.63;;;1.40;;
11008;SDS011;5557;51.670;7.788;2023-06-04T11:03:15;1.80;;;1.50;;
11008;SDS011;5557;51.670;7.788;2023-06-04T11:05:43;2.67;;;1.93;;
11008;SDS011;5557;51.670;7.788;2023-06-04T11:08:12;6.73;;;1.33;;
11008;SDS011;5557;51.670;7.788;2023-06-04T11:10:42;4.20;;;1.37;;
11008;SDS011;5557;51.670;7.788;2023-06-04T11:13:10;1.63;;;1.23;;
11008;SDS011;5557;51.670;7.788;2023-06-04T11:15:41;2.33;;;1.43;;
11008;SDS011;5557;51.670;7.788;2023-06-04T11:18:28;4.80;;;1.27;;
11008;SDS011;5557;51.670;7.788;2023-06-04T11:20:59;6.73;;;1.20;;
11008;SDS011;5557;51.670;7.788;2023-06-04T11:23:28;1.37;;;1.10;;
11008;SDS011;5557;51.670;7.788;2023-06-04T11:25:56;2.47;;;1.10;;
11008;SDS011;5557;51.670;7.788;2023-06-04T11:28:24;2.23;;;1.70;;
11008;SDS011;5557;51.670;7.788;2023-06-04T11:31:01;2.80;;;1.33;;
11008;SDS011;5557;51.670;7.788;2023-06-04T11:33:30;5.53;;;1.30;;
11008;SDS011;5557;51.670;7.788;2023-06-04T11:36:07;3.60;;;1.50;;
11008;SDS011;5557;51.670;7.788;2023-06-04T11:38:35;1.63;;;1.53;;
11008;SDS011;5557;51.670;7.788;2023-06-04T11:41:02;4.40;;;1.63;;
11008;SDS011;5557;51.670;7.788;2023-06-04T11:43:31;1.43;;;1.33;;
11008;SDS011;5557;51.670;7.788;2023-06-04T11:45:59;2.33;;;1.10;;
11008;SDS011;5557;51.670;7.788;2023-06-04T11:48:35;1.83;;;1.27;;
11008;SDS011;5557;51.670;7.788;2023-06-04T11:51:07;1.70;;;1.60;;
11008;SDS011;5557;51.670;7.788;2023-06-04T11:53:37;2.57;;;1.53;;
11008;SDS011;5557;51.670;7.788;2023-06-04T11:56:04;1.50;;;1.40;;
11008;SDS011;5557;51.670;7.788;2023-06-04T11:58:32;3.70;;;1.33;;
11008;SDS011;5557;51.670;7.788;2023-06-04T12:00:59;2.87;;;1.63;;
11008;SDS011;5557;51.670;7.788;2023-06-04T12:03:39;2.83;;;1.87;;
11008;SDS011;5557;51.670;7.788;2023-06-04T12:06:18;7.97;;;2.07;;
11008;SDS011;5557;51.670;7.788;2023-06-04T12:08:52;1.57;;;1.47;;
11008;SDS011;5557;51.670;7.788;2023-06-04T12:14:17;2.07;;;1.97;;
11008;SDS011;5557;51.670;7.788;2023-06-04T12:16:58;2.30;;;2.20;;
11008;SDS011;5557;51.670;7.788;2023-06-04T12:19:45;2.23;;;2.03;;
11008;SDS011;5557;51.670;7.788;2023-06-04T12:22:14;2.13;;;2.03;;
11008;SDS011;5557;51.670;7.788;2023-06-04T12:24:51;3.53;;;2.63;;
11008;SDS011;5557;51.670;7.788;2023-06-04T12:27:20;4.80;;;2.17;;
11008;SDS011;5557;51.670;7.788;2023-06-04T12:29:59;9.73;;;2.20;;
11008;SDS011;5557;51.670;7.788;2023-06-04T12:32:28;7.13;;;2.27;;
11008;SDS011;5557;51.670;7.788;2023-06-04T12:34:57;2.30;;;2.10;;
11008;SDS011;5557;51.670;7.788;2023-06-04T12:37:24;7.77;;;2.50;;
11008;SDS011;5557;51.670;7.788;2023-06-04T12:39:52;3.10;;;2.77;;
11008;SDS011;5557;51.670;7.788;2023-06-04T12:42:19;3.87;;;2.67;;
11008;SDS011;5557;51.670;7.788;2023-06-04T12:44:47;2.93;;;2.73;;
11008;SDS011;5557;51.670;7.788;2023-06-04T12:47:14;2.57;;;2.37;;
11008;SDS011;5557;51.670;7.788;2023-06-04T12:49:44;3.93;;;2.63;;
11008;SDS011;5557;51.670;7.788;2023-06-04T12:52:11;2.23;;;2.13;;
11008;SDS011;5557;51.670;7.788;2023-06-04T12:54:41;8.13;;;2.20;;
11008;SDS011;5557;51.670;7.788;2023-06-04T12:57:08;5.20;;;2.70;;
11008;SDS011;5557;51.670;7.788;2023-06-04T12:59:36;2.80;;;2.60;;
11008;SDS011;5557;51.670;7.788;2023-06-04T13:02:03;5.53;;;2.67;;
11008;SDS011;5557;51.670;7.788;2023-06-04T13:04:30;3.33;;;2.93;;
11008;SDS011;5557;51.670;7.788;2023-06-04T13:06:57;2.67;;;2.57;;
11008;SDS011;5557;51.670;7.788;2023-06-04T13:09:25;10.90;;;2.70;;
11008;SDS011;5557;51.670;7.788;2023-06-04T13:11:55;2.37;;;2.17;;
11008;SDS011;5557;51.670;7.788;2023-06-04T13:14:22;12.03;;;2.83;;
11008;SDS011;5557;51.670;7.788;2023-06-04T13:16:49;4.03;;;2.80;;
11008;SDS011;5557;51.670;7.788;2023-06-04T13:19:18;3.23;;;3.03;;
11008;SDS011;5557;51.670;7.788;2023-06-04T13:21:48;3.30;;;3.03;;
11008;SDS011;5557;51.670;7.788;2023-06-04T13:24:15;5.77;;;3.13;;
11008;SDS011;5557;51.670;7.788;2023-06-04T13:26:42;4.17;;;2.70;;
11008;SDS011;5557;51.670;7.788;2023-06-04T13:29:09;3.60;;;3.30;;
11008;SDS011;5557;51.670;7.788;2023-06-04T13:31:37;3.73;;;2.93;;
11008;SDS011;5557;51.670;7.788;2023-06-04T13:34:06;4.03;;;2.53;;
11008;SDS011;5557;51.670;7.788;2023-06-04T13:36:52;4.10;;;2.90;;
11008;SDS011;5557;51.670;7.788;2023-06-04T13:39:19;3.30;;;2.13;;
11008;SDS011;5557;51.670;7.788;2023-06-04T13:41:47;2.80;;;2.60;;
11008;SDS011;5557;51.670;7.788;2023-06-04T13:44:14;2.77;;;2.57;;
11008;SDS011;5557;51.670;7.788;2023-06-04T13:46:41;2.90;;;2.70;;
11008;SDS011;5557;51.670;7.788;2023-06-04T13:49:08;3.90;;;2.37;;
11008;SDS011;5557;51.670;7.788;2023-06-04T13:51:35;3.50;;;2.43;;
11008;SDS011;5557;51.670;7.788;2023-06-04T13:54:02;8.00;;;2.57;;
11008;SDS011;5557;51.670;7.788;2023-06-04T13:56:31;1.97;;;1.83;;
11008;SDS011;5557;51.670;7.788;2023-06-04T13:59:01;5.13;;;2.30;;
11008;SDS011;5557;51.670;7.788;2023-06-04T14:01:28;2.30;;;2.10;;
11008;SDS011;5557;51.670;7.788;2023-06-04T14:03:56;2.20;;;2.00;;
11008;SDS011;5557;51.670;7.788;2023-06-04T14:06:25;2.43;;;2.23;;
11008;SDS011;5557;51.670;7.788;2023-06-04T14:08:52;2.50;;;2.30;;
11008;SDS011;5557;51.670;7.788;2023-06-04T14:11:19;1.80;;;1.67;;
11008;SDS011;5557;51.670;7.788;2023-06-04T14:13:46;3.87;;;1.63;;
11008;SDS011;5557;51.670;7.788;2023-06-04T14:16:14;1.60;;;1.50;;
11008;SDS011;5557;51.670;7.788;2023-06-04T14:18:41;3.67;;;1.87;;
11008;SDS011;5557;51.670;7.788;2023-06-04T14:21:08;4.20;;;2.23;;
11008;SDS011;5557;51.670;7.788;2023-06-04T14:23:35;2.03;;;1.93;;
11008;SDS011;5557;51.670;7.788;2023-06-04T14:26:02;3.20;;;2.03;;
11008;SDS011;5557;51.670;7.788;2023-06-04T14:28:29;6.90;;;2.13;;
11008;SDS011;5557;51.670;7.788;2023-06-04T14:30:56;7.63;;;2.30;;
11008;SDS011;5557;51.670;7.788;2023-06-04T14:33:24;4.10;;;2.10;;
11008;SDS011;5557;51.670;7.788;2023-06-04T14:35:51;2.00;;;1.90;;
11008;SDS011;5557;51.670;7.788;2023-06-04T14:38:18;6.97;;;2.20;;
11008;SDS011;5557;51.670;7.788;2023-06-04T14:40:45;3.13;;;1.87;;
11008;SDS011;5557;51.670;7.788;2023-06-04T14:43:12;3.20;;;2.00;;
11008;SDS011;5557;51.670;7.788;2023-06-04T14:45:39;7.17;;;1.90;;
11008;SDS011;5557;51.670;7.788;2023-06-04T14:48:07;4.03;;;1.90;;
11008;SDS011;5557;51.670;7.788;2023-06-04T14:50:42;7.63;;;2.60;;
11008;SDS011;5557;51.670;7.788;2023-06-04T14:53:10;2.90;;;1.77;;
11008;SDS011;5557;51.670;7.788;2023-06-04T14:55:38;8.50;;;2.20;;
11008;SDS011;5557;51.670;7.788;2023-06-04T14:58:06;2.30;;;2.10;;
11008;SDS011;5557;51.670;7.788;2023-06-04T15:00:33;1.87;;;1.77;;
11008;SDS011;5557;51.670;7.788;2023-06-04T15:03:00;2.33;;;2.23;;
11008;SDS011;5557;51.670;7.788;2023-06-04T15:05:33;2.60;;;2.40;;
11008;SDS011;5557;51.670;7.788;2023-06-04T15:08:01;2.27;;;2.10;;
11008;SDS011;5557;51.670;7.788;2023-06-04T15:10:29;1.73;;;1.63;;
11008;SDS011;5557;51.670;7.788;2023-06-04T15:12:56;2.23;;;2.10;;
11008;SDS011;5557;51.670;7.788;2023-06-04T15:15:23;3.43;;;2.00;;